sensor_id;sensor_type;location;lat;lon;timestamp;temperature;humidity
18101;DHT22;9177;49.156;8.142;2023-08-31T00:00:12;23.10;99.90
18101;DHT22;9177;49.156;8.142;2023-08-31T00:02:41;23.10;99.90
18101;DHT22;9177;49.156;8.142;2023-08-31T00:05:08;23.10;99.90
18101;DHT22;9177;49.156;8.142;2023-08-31T00:07:36;23.10;99.90
18101;DHT22;9177;49.156;8.142;2023-08-31T00:10:03;23.10;99.90
18101;DHT22;9177;49.156;8.142;2023-08-31T00:12:35;23.10;99.90
18101;DHT22;9177;49.156;8.142;2023-08-31T00:15:03;23.10;99.90
18101;DHT22;9177;49.156;8.142;2023-08-31T00:17:32;23.10;99.90
18101;DHT22;9177;49.156;8.142;2023-08-31T00:19:59;23.10;99.90
18101;DHT22;9177;49.156;8.142;2023-08-31T00:22:26;23.10;99.90
18101;DHT22;9177;49.156;8.142;2023-08-31T00:24:54;23.10;99.90
18101;DHT22;9177;49.156;8.142;2023-08-31T00:27:21;23.10;99.90
18101;DHT22;9177;49.156;8.142;2023-08-31T00:29:48;23.10;99.90
18101;DHT22;9177;49.156;8.142;2023-08-31T00:32:16;23.10;99.90
18101;DHT22;9177;49.156;8.142;2023-08-31T00:34:45;23.10;99.90
18101;DHT22;9177;49.156;8.142;2023-08-31T00:37:12;23.10;99.90
18101;DHT22;9177;49.156;8.142;2023-08-31T00:39:40;23.10;99.90
18101;DHT22;9177;49.156;8.142;2023-08-31T00:42:07;23.00;99.90
18101;DHT22;9177;49.156;8.142;2023-08-31T00:44:34;23.00;99.90
18101;DHT22;9177;49.156;8.142;2023-08-31T00:47:01;23.00;99.90
18101;DHT22;9177;49.156;8.142;2023-08-31T00:49:29;23.00;99.90
18101;DHT22;9177;49.156;8.142;2023-08-31T00:51:59;23.10;99.90
18101;DHT22;9177;49.156;8.142;2023-08-31T00:54:29;23.10;99.90
18101;DHT22;9177;49.156;8.142;2023-08-31T00:56:57;23.10;99.90
18101;DHT22;9177;49.156;8.142;2023-08-31T00:59:24;23.00;99.90
18101;DHT22;9177;49.156;8.142;2023-08-31T01:01:59;23.00;99.90
18101;DHT22;9177;49.156;8.142;2023-08-31T01:04:33;23.00;99.90
18101;DHT22;9177;49.156;8.142;2023-08-31T01:07:15;23.00;99.90
18101;DHT22;9177;49.156;8.142;2023-08-31T01:09:50;23.00;99.90
18101;DHT22;9177;49.156;8.142;2023-08-31T01:12:22;23.00;99.90
18101;DHT22;9177;49.156;8.142;2023-08-31T01:14:57;23.00;99.90
18101;DHT22;9177;49.156;8.142;2023-08-31T01:17:29;23.00;99.90
18101;DHT22;9177;49.156;8.142;2023-08-31T01:19:59;23.00;99.90
18101;DHT22;9177;49.156;8.142;2023-08-31T01:22:31;23.00;99.90
18101;DHT22;9177;49.156;8.142;2023-08-31T01:25:02;23.00;99.90
18101;DHT22;9177;49.156;8.142;2023-08-31T01:27:32;23.00;99.90
18101;DHT22;9177;49.156;8.142;2023-08-31T01:29:59;23.00;99.90
18101;DHT22;9177;49.156;8.142;2023-08-31T01:32:26;23.00;99.90
18101;DHT22;9177;49.156;8.142;2023-08-31T01:34:54;23.00;99.90
18101;DHT22;9177;49.156;8.142;2023-08-31T01:37:27;23.00;99.90
18101;DHT22;9177;49.156;8.142;2023-08-31T01:39:58;23.00;99.90
18101;DHT22;9177;49.156;8.142;2023-08-31T01:42:31;23.00;99.90
18101;DHT22;9177;49.156;8.142;2023-08-31T01:44:59;23.00;99.90
18101;DHT22;9177;49.156;8.142;2023-08-31T01:47:27;23.00;99.90
18101;DHT22;9177;49.156;8.142;2023-08-31T01:49:54;23.00;99.90
18101;DHT22;9177;49.156;8.142;2023-08-31T01:52:22;23.00;99.90
18101;DHT22;9177;49.156;8.142;2023-08-31T01:54:49;23.00;99.90
18101;DHT22;9177;49.156;8.142;2023-08-31T01:57:16;23.00;99.90
18101;DHT22;9177;49.156;8.142;2023-08-31T01:59:45;23.00;99.90
18101;DHT22;9177;49.156;8.142;2023-08-31T02:02:12;23.00;99.90
18101;DHT22;9177;49.156;8.142;2023-08-31T02:04:40;23.00;99.90
18101;DHT22;9177;49.156;8.142;2023-08-31T02:07:06;23.00;99.90
18101;DHT22;9177;49.156;8.142;2023-08-31T02:09:34;23.00;99.90
18101;DHT22;9177;49.156;8.142;2023-08-31T02:12:01;23.00;99.90
18101;DHT22;9177;49.156;8.142;2023-08-31T02:14:30;23.00;99.90
18101;DHT22;9177;49.156;8.142;2023-08-31T02:16:58;23.00;99.90
18101;DHT22;9177;49.156;8.142;2023-08-31T02:19:25;23.00;99.90
18101;DHT22;9177;49.156;8.142;2023-08-31T02:21:52;23.00;99.90
18101;DHT22;9177;49.156;8.142;2023-08-31T02:24:19;23.00;99.90
18101;DHT22;9177;49.156;8.142;2023-08-31T02:26:48;23.00;99.90
18101;DHT22;9177;49.156;8.142;2023-08-31T02:29:15;23.00;99.90
18101;DHT22;9177;49.156;8.142;2023-08-31T02:31:42;23.00;99.90
18101;DHT22;9177;49.156;8.142;2023-08-31T02:34:12;23.00;99.90
18101;DHT22;9177;49.156;8.142;2023-08-31T02:36:39;23.00;99.90
18101;DHT22;9177;49.156;8.142;2023-08-31T02:39:06;23.00;99.90
18101;DHT22;9177;49.156;8.142;2023-08-31T02:41:33;23.00;99.90
18101;DHT22;9177;49.156;8.142;2023-08-31T02:44:00;22.90;99.90
18101;DHT22;9177;49.156;8.142;2023-08-31T02:46:27;23.00;99.90
18101;DHT22;9177;49.156;8.142;2023-08-31T02:48:54;23.00;99.90
18101;DHT22;9177;49.156;8.142;2023-08-31T02:51:23;22.90;99.90
18101;DHT22;9177;49.156;8.142;2023-08-31T02:53:50;23.00;99.90
18101;DHT22;9177;49.156;8.142;2023-08-31T02:56:18;22.90;99.90
18101;DHT22;9177;49.156;8.142;2023-08-31T02:58:46;22.90;99.90
18101;DHT22;9177;49.156;8.142;2023-08-31T03:01:13;22.90;99.90
18101;DHT22;9177;49.156;8.142;2023-08-31T03:03:41;22.90;99.90
18101;DHT22;9177;49.156;8.142;2023-08-31T03:06:10;22.90;99.90
18101;DHT22;9177;49.156;8.142;2023-08-31T03:08:38;22.90;99.90
18101;DHT22;9177;49.156;8.142;2023-08-31T03:11:05;22.90;99.90
18101;DHT22;9177;49.156;8.142;2023-08-31T03:13:33;22.90;99.90
18101;DHT22;9177;49.156;8.142;2023-08-31T03:16:00;22.90;99.90
18101;DHT22;9177;49.156;8.142;2023-08-31T03:18:28;22.90;99.90
18101;DHT22;9177;49.156;8.142;2023-08-31T03:20:55;22.90;99.90
18101;DHT22;9177;49.156;8.142;2023-08-31T03:23:22;22.90;99.90
18101;DHT22;9177;49.156;8.142;2023-08-31T03:25:51;22.90;99.90
18101;DHT22;9177;49.156;8.142;2023-08-31T03:28:19;22.90;99.90
18101;DHT22;9177;49.156;8.142;2023-08-31T03:30:54;22.90;99.90
18101;DHT22;9177;49.156;8.142;2023-08-31T03:33:21;22.90;99.90
18101;DHT22;9177;49.156;8.142;2023-08-31T03:35:49;22.90;99.90
18101;DHT22;9177;49.156;8.142;2023-08-31T03:38:16;22.90;99.90
18101;DHT22;9177;49.156;8.142;2023-08-31T03:40:53;22.90;99.90
18101;DHT22;9177;49.156;8.142;2023-08-31T03:43:20;22.90;99.90
18101;DHT22;9177;49.156;8.142;2023-08-31T03:45:48;22.90;99.90
18101;DHT22;9177;49.156;8.142;2023-08-31T03:48:15;22.90;99.90
18101;DHT22;9177;49.156;8.142;2023-08-31T03:50:42;22.90;99.90
18101;DHT22;9177;49.156;8.142;2023-08-31T03:53:10;22.90;99.90
18101;DHT22;9177;49.156;8.142;2023-08-31T03:55:37;22.90;99.90
18101;DHT22;9177;49.156;8.142;2023-08-31T03:58:05;22.90;99.90
18101;DHT22;9177;49.156;8.142;2023-08-31T04:00:33;22.90;99.90
18101;DHT22;9177;49.156;8.142;2023-08-31T04:03:00;22.90;99.90
18101;DHT22;9177;49.156;8.142;2023-08-31T04:05:32;22.90;99.90
18101;DHT22;9177;49.156;8.142;2023-08-31T04:08:00;22.90;99.90
18101;DHT22;9177;49.156;8.142;2023-08-31T04:10:27;22.90;99.90
18101;DHT22;9177;49.156;8.142;2023-08-31T04:12:55;22.90;99.90
18101;DHT22;9177;49.156;8.142;2023-08-31T04:15:24;22.90;99.90
18101;DHT22;9177;49.156;8.142;2023-08-31T04:17:53;22.90;99.90
18101;DHT22;9177;49.156;8.142;2023-08-31T04:20:20;22.90;99.90
18101;DHT22;9177;49.156;8.142;2023-08-31T04:22:48;22.90;99.90
18101;DHT22;9177;49.156;8.142;2023-08-31T04:25:15;22.90;99.90
18101;DHT22;9177;49.156;8.142;2023-08-31T04:27:42;22.90;99.90
18101;DHT22;9177;49.156;8.142;2023-08-31T04:30:12;22.90;99.90
18101;DHT22;9177;49.156;8.142;2023-08-31T04:32:41;22.90;99.90
18101;DHT22;9177;49.156;8.142;2023-08-31T04:35:09;22.90;99.90
18101;DHT22;9177;49.156;8.142;2023-08-31T04:37:36;22.90;99.90
18101;DHT22;9177;49.156;8.142;2023-08-31T04:40:04;22.90;99.90
18101;DHT22;9177;49.156;8.142;2023-08-31T04:42:31;22.90;99.90
18101;DHT22;9177;49.156;8.142;2023-08-31T04:44:59;22.90;99.90
18101;DHT22;9177;49.156;8.142;2023-08-31T04:47:27;22.90;99.90
18101;DHT22;9177;49.156;8.142;2023-08-31T04:49:56;22.90;99.90
18101;DHT22;9177;49.156;8.142;2023-08-31T04:52:25;22.90;99.90
18101;DHT22;9177;49.156;8.142;2023-08-31T04:54:52;22.90;99.90
18101;DHT22;9177;49.156;8.142;2023-08-31T04:57:19;22.90;99.90
18101;DHT22;9177;49.156;8.142;2023-08-31T04:59:46;22.90;99.90
18101;DHT22;9177;49.156;8.142;2023-08-31T05:02:14;22.90;99.90
18101;DHT22;9177;49.156;8.142;2023-08-31T05:04:41;22.90;99.90
18101;DHT22;9177;49.156;8.142;2023-08-31T05:07:10;22.90;99.90
18101;DHT22;9177;49.156;8.142;2023-08-31T05:09:37;22.90;99.90
18101;DHT22;9177;49.156;8.142;2023-08-31T05:12:05;22.90;99.90
18101;DHT22;9177;49.156;8.142;2023-08-31T05:14:33;22.90;99.90
18101;DHT22;9177;49.156;8.142;2023-08-31T05:17:03;22.90;99.90
18101;DHT22;9177;49.156;8.142;2023-08-31T05:19:30;22.80;99.90
18101;DHT22;9177;49.156;8.142;2023-08-31T05:21:57;22.80;99.90
18101;DHT22;9177;49.156;8.142;2023-08-31T05:24:25;22.80;99.90
18101;DHT22;9177;49.156;8.142;2023-08-31T05:26:53;22.80;99.90
18101;DHT22;9177;49.156;8.142;2023-08-31T05:29:20;22.80;99.90
18101;DHT22;9177;49.156;8.142;2023-08-31T05:31:47;22.80;99.90
18101;DHT22;9177;49.156;8.142;2023-08-31T05:34:16;22.80;99.90
18101;DHT22;9177;49.156;8.142;2023-08-31T05:36:44;22.80;99.90
18101;DHT22;9177;49.156;8.142;2023-08-31T05:39:11;22.80;99.90
18101;DHT22;9177;49.156;8.142;2023-08-31T05:41:41;22.80;99.90
18101;DHT22;9177;49.156;8.142;2023-08-31T05:44:09;22.80;99.90
18101;DHT22;9177;49.156;8.142;2023-08-31T05:46:36;22.80;99.90
18101;DHT22;9177;49.156;8.142;2023-08-31T05:49:05;22.80;99.90
18101;DHT22;9177;49.156;8.142;2023-08-31T05:51:32;22.80;99.90
18101;DHT22;9177;49.156;8.142;2023-08-31T05:54:00;22.80;99.90
18101;DHT22;9177;49.156;8.142;2023-08-31T05:56:28;22.80;99.90
18101;DHT22;9177;49.156;8.142;2023-08-31T05:58:57;22.80;99.90
18101;DHT22;9177;49.156;8.142;2023-08-31T06:01:24;22.80;99.90
18101;DHT22;9177;49.156;8.142;2023-08-31T06:03:51;22.80;99.90
18101;DHT22;9177;49.156;8.142;2023-08-31T06:06:18;22.80;99.90
18101;DHT22;9177;49.156;8.142;2023-08-31T06:08:46;22.80;99.90
18101;DHT22;9177;49.156;8.142;2023-08-31T06:11:13;22.80;99.90
18101;DHT22;9177;49.156;8.142;2023-08-31T06:13:42;22.80;99.90
18101;DHT22;9177;49.156;8.142;2023-08-31T06:16:11;22.80;99.90
18101;DHT22;9177;49.156;8.142;2023-08-31T06:18:38;22.80;99.90
18101;DHT22;9177;49.156;8.142;2023-08-31T06:21:05;22.80;99.90
18101;DHT22;9177;49.156;8.142;2023-08-31T06:23:33;22.80;99.90
18101;DHT22;9177;49.156;8.142;2023-08-31T06:26:00;22.80;99.90
18101;DHT22;9177;49.156;8.142;2023-08-31T06:28:27;22.80;99.90
18101;DHT22;9177;49.156;8.142;2023-08-31T06:30:55;22.80;99.90
18101;DHT22;9177;49.156;8.142;2023-08-31T06:33:23;22.80;99.90
18101;DHT22;9177;49.156;8.142;2023-08-31T06:35:51;22.80;99.90
18101;DHT22;9177;49.156;8.142;2023-08-31T06:38:18;22.70;99.90
18101;DHT22;9177;49.156;8.142;2023-08-31T06:40:46;22.80;99.90
18101;DHT22;9177;49.156;8.142;2023-08-31T06:43:14;22.80;99.90
18101;DHT22;9177;49.156;8.142;2023-08-31T06:45:41;22.80;99.90
18101;DHT22;9177;49.156;8.142;2023-08-31T06:48:08;22.70;99.90
18101;DHT22;9177;49.156;8.142;2023-08-31T06:50:37;22.70;99.90
18101;DHT22;9177;49.156;8.142;2023-08-31T06:53:04;22.70;99.90
18101;DHT22;9177;49.156;8.142;2023-08-31T06:55:32;22.70;99.90
18101;DHT22;9177;49.156;8.142;2023-08-31T06:58:02;22.70;99.90
18101;DHT22;9177;49.156;8.142;2023-08-31T07:00:30;22.70;99.90
18101;DHT22;9177;49.156;8.142;2023-08-31T07:02:58;22.70;99.90
18101;DHT22;9177;49.156;8.142;2023-08-31T07:05:26;22.70;99.90
18101;DHT22;9177;49.156;8.142;2023-08-31T07:07:56;22.70;99.90
18101;DHT22;9177;49.156;8.142;2023-08-31T07:10:24;22.80;99.90
18101;DHT22;9177;49.156;8.142;2023-08-31T07:12:51;22.80;99.90
18101;DHT22;9177;49.156;8.142;2023-08-31T07:15:18;22.80;99.90
18101;DHT22;9177;49.156;8.142;2023-08-31T07:17:46;22.80;99.90
18101;DHT22;9177;49.156;8.142;2023-08-31T07:20:15;22.80;99.90
18101;DHT22;9177;49.156;8.142;2023-08-31T07:22:42;22.80;99.90
18101;DHT22;9177;49.156;8.142;2023-08-31T07:25:10;22.80;99.90
18101;DHT22;9177;49.156;8.142;2023-08-31T07:27:38;22.80;99.90
18101;DHT22;9177;49.156;8.142;2023-08-31T07:30:09;22.80;99.90
18101;DHT22;9177;49.156;8.142;2023-08-31T07:32:40;22.80;99.90
18101;DHT22;9177;49.156;8.142;2023-08-31T07:35:08;22.90;99.90
18101;DHT22;9177;49.156;8.142;2023-08-31T07:37:36;22.90;99.90
18101;DHT22;9177;49.156;8.142;2023-08-31T07:40:03;22.90;99.90
18101;DHT22;9177;49.156;8.142;2023-08-31T07:42:35;22.90;99.90
18101;DHT22;9177;49.156;8.142;2023-08-31T07:45:03;23.00;99.90
18101;DHT22;9177;49.156;8.142;2023-08-31T07:47:31;23.00;99.90
18101;DHT22;9177;49.156;8.142;2023-08-31T07:49:59;23.10;99.90
18101;DHT22;9177;49.156;8.142;2023-08-31T07:52:29;23.10;99.90
18101;DHT22;9177;49.156;8.142;2023-08-31T07:54:56;23.10;99.90
18101;DHT22;9177;49.156;8.142;2023-08-31T07:57:23;23.10;99.90
18101;DHT22;9177;49.156;8.142;2023-08-31T07:59:52;23.10;99.90
18101;DHT22;9177;49.156;8.142;2023-08-31T08:02:20;23.20;99.90
18101;DHT22;9177;49.156;8.142;2023-08-31T08:04:48;23.20;99.90
18101;DHT22;9177;49.156;8.142;2023-08-31T08:07:15;23.20;99.90
18101;DHT22;9177;49.156;8.142;2023-08-31T08:09:44;23.20;99.90
18101;DHT22;9177;49.156;8.142;2023-08-31T08:12:11;23.20;99.90
18101;DHT22;9177;49.156;8.142;2023-08-31T08:14:38;23.20;99.90
18101;DHT22;9177;49.156;8.142;2023-08-31T08:17:07;23.20;99.90
18101;DHT22;9177;49.156;8.142;2023-08-31T08:19:34;23.20;99.90
18101;DHT22;9177;49.156;8.142;2023-08-31T08:22:01;23.20;99.90
18101;DHT22;9177;49.156;8.142;2023-08-31T08:24:29;23.30;99.90
18101;DHT22;9177;49.156;8.142;2023-08-31T08:26:56;23.30;99.90
18101;DHT22;9177;49.156;8.142;2023-08-31T08:29:23;23.30;99.90
18101;DHT22;9177;49.156;8.142;2023-08-31T08:31:51;23.30;99.90
18101;DHT22;9177;49.156;8.142;2023-08-31T08:34:20;23.30;99.90
18101;DHT22;9177;49.156;8.142;2023-08-31T08:36:47;23.30;99.90
18101;DHT22;9177;49.156;8.142;2023-08-31T08:39:14;23.30;99.90
18101;DHT22;9177;49.156;8.142;2023-08-31T08:41:42;23.30;99.90
18101;DHT22;9177;49.156;8.142;2023-08-31T08:44:10;23.30;99.90
18101;DHT22;9177;49.156;8.142;2023-08-31T08:46:38;23.30;99.90
18101;DHT22;9177;49.156;8.142;2023-08-31T08:49:05;23.40;99.90
18101;DHT22;9177;49.156;8.142;2023-08-31T08:51:35;23.40;99.90
18101;DHT22;9177;49.156;8.142;2023-08-31T08:54:02;23.40;99.90
18101;DHT22;9177;49.156;8.142;2023-08-31T08:56:30;23.40;99.90
18101;DHT22;9177;49.156;8.142;2023-08-31T08:59:02;23.40;99.90
18101;DHT22;9177;49.156;8.142;2023-08-31T09:01:29;23.40;99.90
18101;DHT22;9177;49.156;8.142;2023-08-31T09:03:57;23.40;99.90
18101;DHT22;9177;49.156;8.142;2023-08-31T09:06:24;23.40;99.90
18101;DHT22;9177;49.156;8.142;2023-08-31T09:08:56;23.40;99.90
18101;DHT22;9177;49.156;8.142;2023-08-31T09:11:23;23.40;99.90
18101;DHT22;9177;49.156;8.142;2023-08-31T09:13:51;23.40;99.90
18101;DHT22;9177;49.156;8.142;2023-08-31T09:16:29;23.40;99.90
18101;DHT22;9177;49.156;8.142;2023-08-31T09:18:58;23.40;99.90
18101;DHT22;9177;49.156;8.142;2023-08-31T09:21:35;23.40;99.90
18101;DHT22;9177;49.156;8.142;2023-08-31T09:24:05;23.40;99.90
18101;DHT22;9177;49.156;8.142;2023-08-31T09:26:37;23.40;99.90
18101;DHT22;9177;49.156;8.142;2023-08-31T09:29:05;23.40;99.90
18101;DHT22;9177;49.156;8.142;2023-08-31T09:31:32;23.40;99.90
18101;DHT22;9177;49.156;8.142;2023-08-31T09:33:59;23.50;99.90
18101;DHT22;9177;49.156;8.142;2023-08-31T09:36:30;23.50;99.90
18101;DHT22;9177;49.156;8.142;2023-08-31T09:38:59;23.50;99.90
18101;DHT22;9177;49.156;8.142;2023-08-31T09:41:28;23.50;99.90
18101;DHT22;9177;49.156;8.142;2023-08-31T09:43:55;23.50;99.90
18101;DHT22;9177;49.156;8.142;2023-08-31T09:46:23;23.60;99.90
18101;DHT22;9177;49.156;8.142;2023-08-31T09:48:51;23.60;99.90
18101;DHT22;9177;49.156;8.142;2023-08-31T09:51:20;23.60;99.90
18101;DHT22;9177;49.156;8.142;2023-08-31T09:53:53;23.60;99.90
18101;DHT22;9177;49.156;8.142;2023-08-31T09:56:24;23.60;99.90
18101;DHT22;9177;49.156;8.142;2023-08-31T09:58:55;23.60;99.90
18101;DHT22;9177;49.156;8.142;2023-08-31T10:01:22;23.60;99.90
18101;DHT22;9177;49.156;8.142;2023-08-31T10:03:49;23.60;99.90
18101;DHT22;9177;49.156;8.142;2023-08-31T10:06:17;23.60;99.90
18101;DHT22;9177;49.156;8.142;2023-08-31T10:08:45;23.70;99.90
18101;DHT22;9177;49.156;8.142;2023-08-31T10:11:13;23.60;99.90
18101;DHT22;9177;49.156;8.142;2023-08-31T10:13:43;23.60;99.90
18101;DHT22;9177;49.156;8.142;2023-08-31T10:16:13;23.60;99.90
18101;DHT22;9177;49.156;8.142;2023-08-31T10:18:41;23.60;99.90
18101;DHT22;9177;49.156;8.142;2023-08-31T10:21:09;23.50;99.90
18101;DHT22;9177;49.156;8.142;2023-08-31T10:23:44;23.50;99.90
18101;DHT22;9177;49.156;8.142;2023-08-31T10:26:11;23.50;99.90
18101;DHT22;9177;49.156;8.142;2023-08-31T10:28:41;23.50;99.90
18101;DHT22;9177;49.156;8.142;2023-08-31T10:31:09;23.50;99.90
18101;DHT22;9177;49.156;8.142;2023-08-31T10:33:41;23.50;99.90
18101;DHT22;9177;49.156;8.142;2023-08-31T10:36:14;23.50;99.90
18101;DHT22;9177;49.156;8.142;2023-08-31T10:38:42;23.50;99.90
18101;DHT22;9177;49.156;8.142;2023-08-31T10:41:18;23.50;99.90
18101;DHT22;9177;49.156;8.142;2023-08-31T10:43:48;23.40;99.90
18101;DHT22;9177;49.156;8.142;2023-08-31T10:46:24;23.40;99.90
18101;DHT22;9177;49.156;8.142;2023-08-31T10:48:53;23.40;99.90
18101;DHT22;9177;49.156;8.142;2023-08-31T10:51:26;23.40;99.90
18101;DHT22;9177;49.156;8.142;2023-08-31T10:54:07;23.40;99.90
18101;DHT22;9177;49.156;8.142;2023-08-31T10:57:01;23.40;99.90
18101;DHT22;9177;49.156;8.142;2023-08-31T10:59:45;23.30;99.70
18101;DHT22;9177;49.156;8.142;2023-08-31T11:02:28;23.30;99.40
18101;DHT22;9177;49.156;8.142;2023-08-31T11:05:00;23.30;99.20
18101;DHT22;9177;49.156;8.142;2023-08-31T11:07:29;23.30;99.00
18101;DHT22;9177;49.156;8.142;2023-08-31T11:10:10;23.40;98.90
18101;DHT22;9177;49.156;8.142;2023-08-31T11:12:38;23.40;98.90
18101;DHT22;9177;49.156;8.142;2023-08-31T11:15:07;23.40;99.00
18101;DHT22;9177;49.156;8.142;2023-08-31T11:17:36;23.30;98.50
18101;DHT22;9177;49.156;8.142;2023-08-31T11:20:08;23.30;98.50
18101;DHT22;9177;49.156;8.142;2023-08-31T11:22:38;23.30;98.40
18101;DHT22;9177;49.156;8.142;2023-08-31T11:25:08;23.30;98.30
18101;DHT22;9177;49.156;8.142;2023-08-31T11:27:35;23.30;98.30
18101;DHT22;9177;49.156;8.142;2023-08-31T11:30:06;23.30;98.30
18101;DHT22;9177;49.156;8.142;2023-08-31T11:32:44;23.20;98.20
18101;DHT22;9177;49.156;8.142;2023-08-31T11:35:14;23.20;98.20
18101;DHT22;9177;49.156;8.142;2023-08-31T11:37:42;23.20;98.20
18101;DHT22;9177;49.156;8.142;2023-08-31T11:40:10;23.20;98.20
18101;DHT22;9177;49.156;8.142;2023-08-31T11:42:38;23.20;98.10
18101;DHT22;9177;49.156;8.142;2023-08-31T11:45:06;23.20;98.10
18101;DHT22;9177;49.156;8.142;2023-08-31T11:47:34;23.20;98.00
18101;DHT22;9177;49.156;8.142;2023-08-31T11:50:03;23.30;98.00
18101;DHT22;9177;49.156;8.142;2023-08-31T11:52:33;23.30;97.70
18101;DHT22;9177;49.156;8.142;2023-08-31T11:55:01;23.40;97.60
18101;DHT22;9177;49.156;8.142;2023-08-31T11:57:28;23.40;97.50
18101;DHT22;9177;49.156;8.142;2023-08-31T11:59:56;23.40;97.50
18101;DHT22;9177;49.156;8.142;2023-08-31T12:02:24;23.40;97.50
18101;DHT22;9177;49.156;8.142;2023-08-31T12:04:51;23.40;97.60
18101;DHT22;9177;49.156;8.142;2023-08-31T12:07:19;23.40;97.60
18101;DHT22;9177;49.156;8.142;2023-08-31T12:09:49;23.40;97.40
18101;DHT22;9177;49.156;8.142;2023-08-31T12:12:20;23.40;97.30
18101;DHT22;9177;49.156;8.142;2023-08-31T12:14:52;23.50;97.20
18101;DHT22;9177;49.156;8.142;2023-08-31T12:17:20;23.60;97.00
18101;DHT22;9177;49.156;8.142;2023-08-31T12:19:47;23.70;96.80
18101;DHT22;9177;49.156;8.142;2023-08-31T12:22:15;23.80;96.70
18101;DHT22;9177;49.156;8.142;2023-08-31T12:24:42;23.90;96.50
18101;DHT22;9177;49.156;8.142;2023-08-31T12:27:11;24.00;96.40
18101;DHT22;9177;49.156;8.142;2023-08-31T12:29:39;24.00;96.30
18101;DHT22;9177;49.156;8.142;2023-08-31T12:32:06;24.00;96.30
18101;DHT22;9177;49.156;8.142;2023-08-31T12:34:33;24.00;96.30
18101;DHT22;9177;49.156;8.142;2023-08-31T12:37:00;23.90;96.30
18101;DHT22;9177;49.156;8.142;2023-08-31T12:39:30;23.90;96.40
18101;DHT22;9177;49.156;8.142;2023-08-31T12:41:58;23.80;96.60
18101;DHT22;9177;49.156;8.142;2023-08-31T12:44:27;23.80;96.40
18101;DHT22;9177;49.156;8.142;2023-08-31T12:46:55;23.80;96.50
18101;DHT22;9177;49.156;8.142;2023-08-31T12:49:23;23.70;96.50
18101;DHT22;9177;49.156;8.142;2023-08-31T12:51:50;23.70;96.60
18101;DHT22;9177;49.156;8.142;2023-08-31T12:54:17;23.60;96.70
18101;DHT22;9177;49.156;8.142;2023-08-31T12:56:45;23.60;96.90
18101;DHT22;9177;49.156;8.142;2023-08-31T12:59:12;23.50;96.80
18101;DHT22;9177;49.156;8.142;2023-08-31T13:01:42;23.40;96.90
18101;DHT22;9177;49.156;8.142;2023-08-31T13:04:09;23.40;97.10
18101;DHT22;9177;49.156;8.142;2023-08-31T13:06:37;23.40;97.20
18101;DHT22;9177;49.156;8.142;2023-08-31T13:09:04;23.40;97.30
18101;DHT22;9177;49.156;8.142;2023-08-31T13:11:34;23.40;97.40
18101;DHT22;9177;49.156;8.142;2023-08-31T13:14:01;23.40;97.40
18101;DHT22;9177;49.156;8.142;2023-08-31T13:16:29;23.40;97.50
18101;DHT22;9177;49.156;8.142;2023-08-31T13:18:58;23.40;97.50
18101;DHT22;9177;49.156;8.142;2023-08-31T13:21:26;23.30;97.40
18101;DHT22;9177;49.156;8.142;2023-08-31T13:23:54;23.30;97.40
18101;DHT22;9177;49.156;8.142;2023-08-31T13:26:21;23.30;97.30
18101;DHT22;9177;49.156;8.142;2023-08-31T13:28:49;23.30;97.30
18101;DHT22;9177;49.156;8.142;2023-08-31T13:31:16;23.30;97.20
18101;DHT22;9177;49.156;8.142;2023-08-31T13:33:44;23.30;97.10
18101;DHT22;9177;49.156;8.142;2023-08-31T13:36:13;23.30;97.20
18101;DHT22;9177;49.156;8.142;2023-08-31T13:38:40;23.30;97.30
18101;DHT22;9177;49.156;8.142;2023-08-31T13:41:08;23.20;97.30
18101;DHT22;9177;49.156;8.142;2023-08-31T13:43:35;23.20;97.30
18101;DHT22;9177;49.156;8.142;2023-08-31T13:46:02;23.20;97.40
18101;DHT22;9177;49.156;8.142;2023-08-31T13:48:30;23.20;97.40
18101;DHT22;9177;49.156;8.142;2023-08-31T13:50:58;23.10;97.40
18101;DHT22;9177;49.156;8.142;2023-08-31T13:53:27;23.10;97.40
18101;DHT22;9177;49.156;8.142;2023-08-31T13:55:54;23.10;97.40
18101;DHT22;9177;49.156;8.142;2023-08-31T13:58:25;23.10;97.40
18101;DHT22;9177;49.156;8.142;2023-08-31T14:00:52;23.10;97.40
18101;DHT22;9177;49.156;8.142;2023-08-31T14:03:20;23.10;97.40
18101;DHT22;9177;49.156;8.142;2023-08-31T14:05:48;23.10;97.50
18101;DHT22;9177;49.156;8.142;2023-08-31T14:08:16;23.00;97.50
18101;DHT22;9177;49.156;8.142;2023-08-31T14:10:45;23.00;97.50
18101;DHT22;9177;49.156;8.142;2023-08-31T14:13:12;23.00;97.60
18101;DHT22;9177;49.156;8.142;2023-08-31T14:15:44;23.00;97.60
18101;DHT22;9177;49.156;8.142;2023-08-31T14:18:12;23.00;97.60
18101;DHT22;9177;49.156;8.142;2023-08-31T14:20:40;23.00;97.70
18101;DHT22;9177;49.156;8.142;2023-08-31T14:23:08;22.90;97.70
18101;DHT22;9177;49.156;8.142;2023-08-31T14:25:36;22.90;97.70
18101;DHT22;9177;49.156;8.142;2023-08-31T14:28:06;22.90;97.70
18101;DHT22;9177;49.156;8.142;2023-08-31T14:30:36;22.90;97.70
18101;DHT22;9177;49.156;8.142;2023-08-31T14:33:05;22.90;97.70
18101;DHT22;9177;49.156;8.142;2023-08-31T14:35:35;22.90;97.80
18101;DHT22;9177;49.156;8.142;2023-08-31T14:38:03;22.90;97.80
18101;DHT22;9177;49.156;8.142;2023-08-31T14:40:31;22.90;97.80
18101;DHT22;9177;49.156;8.142;2023-08-31T14:43:01;22.90;97.90
18101;DHT22;9177;49.156;8.142;2023-08-31T14:45:29;22.90;98.00
18101;DHT22;9177;49.156;8.142;2023-08-31T14:47:56;22.90;98.00
18101;DHT22;9177;49.156;8.142;2023-08-31T14:50:24;22.90;98.10
18101;DHT22;9177;49.156;8.142;2023-08-31T14:52:51;22.90;98.10
18101;DHT22;9177;49.156;8.142;2023-08-31T14:55:18;22.90;98.20
18101;DHT22;9177;49.156;8.142;2023-08-31T14:57:48;22.90;98.20
18101;DHT22;9177;49.156;8.142;2023-08-31T15:00:16;23.00;98.20
18101;DHT22;9177;49.156;8.142;2023-08-31T15:02:46;23.00;98.20
18101;DHT22;9177;49.156;8.142;2023-08-31T15:05:14;23.00;98.30
18101;DHT22;9177;49.156;8.142;2023-08-31T15:07:43;23.10;98.30
18101;DHT22;9177;49.156;8.142;2023-08-31T15:10:11;23.10;98.30
18101;DHT22;9177;49.156;8.142;2023-08-31T15:12:39;23.10;98.30
18101;DHT22;9177;49.156;8.142;2023-08-31T15:15:07;23.10;98.30
18101;DHT22;9177;49.156;8.142;2023-08-31T15:17:35;23.10;98.30
18101;DHT22;9177;49.156;8.142;2023-08-31T15:20:06;23.10;98.40
18101;DHT22;9177;49.156;8.142;2023-08-31T15:22:34;23.10;98.40
18101;DHT22;9177;49.156;8.142;2023-08-31T15:25:03;23.10;98.40
18101;DHT22;9177;49.156;8.142;2023-08-31T15:27:31;23.10;98.50
18101;DHT22;9177;49.156;8.142;2023-08-31T15:29:58;23.10;98.50
18101;DHT22;9177;49.156;8.142;2023-08-31T15:32:26;23.10;98.50
18101;DHT22;9177;49.156;8.142;2023-08-31T15:34:53;23.10;98.60
18101;DHT22;9177;49.156;8.142;2023-08-31T15:37:22;23.10;98.60
18101;DHT22;9177;49.156;8.142;2023-08-31T15:39:50;23.10;98.60
18101;DHT22;9177;49.156;8.142;2023-08-31T15:42:18;23.10;98.60
18101;DHT22;9177;49.156;8.142;2023-08-31T15:44:45;23.10;98.70
18101;DHT22;9177;49.156;8.142;2023-08-31T15:47:12;23.10;98.70
18101;DHT22;9177;49.156;8.142;2023-08-31T15:49:39;23.10;99.10
18101;DHT22;9177;49.156;8.142;2023-08-31T15:52:08;23.20;98.80